Cambridge, MA

2:49 PM EDT on May 25, 2015 (GMT -0400)
Tufts University | | Change Station
CLOSE
Current Station
Personal Weather Station
Location: Medford, MA
Elevation: 95 ft
Nearby Weather Stations

Elev 95 ft 42.41 °N, 71.12 °W | Updated 8 seconds ago

Overcast
Overcast
81.7 °F
Feels Like 81 °F
N
2.9
Wind Variable Wind from South
Gusts 6.0 mph

Today
High -- | Low -- °F
--% Chance of Precip.
Yesterday
High -- | Low -- °F
Precip. -- in
5:14 AM 8:08 PM
Waxing Crescent, 51% visible
Pressure 30.20 in
Visibility 10.0 miles
Clouds Mostly Cloudy 11000 ft
Overcast 16000 ft
Heat Index 81 °F
Dew Point 56 °F
Humidity 41%
Rainfall 0.00 in
Snow Depth Not available.
UV 3 out of 12
Pollen 9.50 out of 12
Air Quality Not available.
Flu Activity Local Activity
METAR KBOS 251754Z 23009G17KT 10SM BKN110 OVC160 26/09 A3020 RMK AO2 SLP227 T02610094 10272 20183 58011

More Conditions Fewer Conditions

Pressure 30.20 in
Visibility 10.0 miles
Clouds Mostly Cloudy 11000 ft
Overcast 16000 ft
Heat Index 81 °F
Dew Point 56 °F
Humidity 41%
Rainfall 0.00 in
Snow Depth Not available.
UV 3 out of 12
Pollen 9.50 out of 12
Air Quality Not available.
Flu Activity Local Activity
METAR KBOS 251754Z 23009G17KT 10SM BKN110 OVC160 26/09 A3020 RMK AO2 SLP227 T02610094 10272 20183 58011

More Conditions Fewer Conditions

10-Day Weather Forecast

Almanac

Astronomy

May. 25, 2015 Rise Set
Actual Time
Civil Twilight
Nautical Twilight
Astronomical Twilight
Moon
Length of Visible Light
Length of Day
Tomorrow will be .
, % of the Moon is Illuminated

Today's Extremes

State Highs State Lows

Community

WunderPhotos

Upload Photos

1,824,080 photos uploaded!

WunderBlogs® & News

Nearby

Air Quality

  Air Quality AQ Index Pollutant
Not available.

Snow Depth

Station Depth Elevation

Earthquake Activity

City Distance Mag. Time & Date
Minimum magnitude displayed is 2.5.

Coastal Water Temperatures

Place Temperature

Stations

Nearby Weather Stations

Station Location Temp. Windchill Dew Point Humidity Wind Precip. Elev Updated Type